Time;durP1;ratioP1;P1;durP2;ratioP2;P2;SDS_P1;SDS_P2;PMS_P1;PMS_P2;Temp;Humidity;BMP_temperature;BMP_pressure;BME280_temperature;BME280_humidity;BME280_pressure;Samples;Min_cycle;Max_cycle;Signal;HPM_P1;HPM_P2
2023/09/23 00:02:18;;;;;;;16.75;8.57;;;;;;;-144.73;100.00;54506.22;5034686;28;20028;-72
2023/09/23 00:04:44;;;;;;;11.10;7.03;;;;;;;-144.73;100.00;54473.38;5055020;28;20028;-72
2023/09/23 00:07:09;;;;;;;14.57;7.43;;;;;;;-144.73;100.00;54481.59;5052847;28;20024;-71
2023/09/23 00:09:36;;;;;;;12.40;7.13;;;;;;;-144.73;100.00;54444.66;5037671;28;20431;-72
2023/09/23 00:12:02;;;;;;;12.70;7.47;;;;;;;-144.73;100.00;54452.84;5033018;28;20103;-72
2023/09/23 00:14:28;;;;;;;11.30;6.70;;;;;;;-144.73;100.00;54502.13;5055878;28;20052;-72
2023/09/23 00:16:55;;;;;;;12.18;6.68;;;;;;;-144.73;100.00;54461.06;5061822;28;20028;-72
2023/09/23 00:19:20;;;;;;;7.03;5.40;;;;;;;-144.73;100.00;54465.16;5050592;28;20036;-72
2023/09/23 00:21:47;;;;;;;11.00;5.65;;;;;;;-144.73;100.00;54440.53;5039776;28;20025;-73
2023/09/23 00:24:13;;;;;;;11.68;5.80;;;;;;;-144.73;100.00;54473.38;5046873;28;20028;-72
2023/09/23 00:26:39;;;;;;;10.93;6.63;;;;;;;-144.73;100.00;54485.69;5033168;28;20044;-72
2023/09/23 00:29:04;;;;;;;10.15;5.63;;;;;;;-144.73;100.00;54461.06;5052725;28;20033;-72
2023/09/23 00:31:30;;;;;;;9.93;5.25;;;;;;;-144.73;100.00;54465.16;5050446;28;20021;-72
2023/09/23 00:33:55;;;;;;;9.50;5.05;;;;;;;-144.73;100.00;54477.47;5033161;28;20041;-72
2023/09/23 00:36:22;;;;;;;11.80;6.13;;;;;;;-144.73;100.00;54491.84;5060090;28;20048;-72
2023/09/23 00:38:48;;;;;;;11.27;6.43;;;;;;;-144.73;100.00;54440.53;5033122;28;20047;-73
2023/09/23 00:41:13;;;;;;;9.50;5.63;;;;;;;-144.73;100.00;54434.38;5032136;28;20074;-72
2023/09/23 00:43:40;;;;;;;12.73;7.35;;;;;;;-144.73;100.00;54473.38;5032423;28;20036;-72
2023/09/23 00:46:06;;;;;;;10.20;6.32;;;;;;;-144.73;100.00;54485.69;5031210;28;20464;-72
2023/09/23 00:48:39;;;;;;;8.07;5.35;;;;;;;-144.73;100.00;54444.66;5051040;28;20029;-72
2023/09/23 00:51:07;;;;;;;11.93;5.63;;;;;;;-144.73;100.00;54420.00;5027334;28;20071;-73
2023/09/23 00:53:35;;;;;;;10.88;4.95;;;;;;;-144.73;100.00;54444.66;5028421;28;20040;-72
2023/09/23 00:56:00;;;;;;;12.48;5.82;;;;;;;-144.73;100.00;54459.00;5032106;28;20044;-72
2023/09/23 00:58:26;;;;;;;17.45;6.55;;;;;;;-144.73;100.00;54461.06;5063576;28;20025;-72
2023/09/23 01:00:54;;;;;;;12.32;6.68;;;;;;;-144.73;100.00;54469.28;5034711;28;20045;-72
2023/09/23 01:03:20;;;;;;;8.93;5.80;;;;;;;-144.73;100.00;54456.97;5039043;28;20028;-71
2023/09/23 01:05:47;;;;;;;12.45;7.32;;;;;;;-144.73;100.00;54502.13;5035849;28;20399;-74
2023/09/23 01:08:18;;;;;;;8.85;5.88;;;;;;;-144.73;100.00;54498.00;5053037;28;20079;-75
2023/09/23 01:10:46;;;;;;;13.52;6.43;;;;;;;-144.73;100.00;54469.28;5051965;28;20037;-76
2023/09/23 01:13:11;;;;;;;21.40;6.57;;;;;;;-144.73;100.00;54477.47;5059507;28;20021;-76
2023/09/23 01:15:40;;;;;;;12.32;6.95;;;;;;;-144.73;100.00;54448.75;5064388;28;20033;-77
2023/09/23 01:18:13;;;;;;;11.85;6.22;;;;;;;-144.73;100.00;54473.38;5036258;28;20063;-77
2023/09/23 01:20:41;;;;;;;11.10;6.43;;;;;;;-144.73;100.00;54461.06;5031659;28;20167;-76
2023/09/23 01:23:10;;;;;;;11.00;5.72;;;;;;;-144.73;100.00;54461.06;5058739;28;20017;-76
2023/09/23 01:25:37;;;;;;;19.17;6.78;;;;;;;-144.73;100.00;54448.75;5039205;28;20057;-76
2023/09/23 01:28:05;;;;;;;10.27;6.95;;;;;;;-144.73;100.00;54485.69;5040327;28;20087;-75
2023/09/23 01:30:31;;;;;;;10.93;6.32;;;;;;;-144.73;100.00;54469.28;5034971;28;20033;-74
2023/09/23 01:32:56;;;;;;;11.65;6.70;;;;;;;-144.73;100.00;54452.84;5040780;28;20023;-74
2023/09/23 01:35:22;;;;;;;10.90;6.07;;;;;;;-144.73;100.00;54448.75;5034832;28;20391;-74
2023/09/23 01:37:49;;;;;;;17.00;6.70;;;;;;;-144.73;100.00;54465.16;5035619;28;20021;-74
2023/09/23 01:40:17;;;;;;;12.98;7.00;;;;;;;-144.73;100.00;54477.47;5035122;28;20112;-74
2023/09/23 01:42:51;;;;;;;12.98;6.80;;;;;;;-144.73;100.00;54493.91;5035587;28;20378;-74
2023/09/23 01:45:19;;;;;;;15.13;7.30;;;;;;;-144.73;100.00;54465.16;5058948;28;20088;-75
2023/09/23 01:47:44;;;;;;;16.38;7.78;;;;;;;-144.73;100.00;54477.47;5064542;28;20048;-74
2023/09/23 01:50:11;;;;;;;16.75;8.43;;;;;;;-144.73;100.00;54481.59;5047109;28;20024;-74
2023/09/23 01:52:43;;;;;;;15.00;7.82;;;;;;;-144.73;100.00;54502.13;5039939;28;20090;-74
2023/09/23 01:55:11;;;;;;;14.40;7.28;;;;;;;-144.73;100.00;54440.53;5035952;28;20030;-75
2023/09/23 01:57:40;;;;;;;14.68;8.68;;;;;;;-144.73;100.00;54465.16;5035706;28;20044;-75
2023/09/23 02:00:07;;;;;;;11.05;7.95;;;;;;;-144.73;100.00;54485.69;5037925;28;20037;-74
2023/09/23 02:02:33;;;;;;;18.83;9.10;;;;;;;-144.73;100.00;54502.13;5041187;28;20021;-73
2023/09/23 02:04:59;;;;;;;13.43;8.57;;;;;;;-144.73;100.00;54475.44;5038724;28;20515;-72
2023/09/23 02:07:26;;;;;;;17.40;10.38;;;;;;;-144.73;100.00;54502.13;5039579;28;20033;-73
2023/09/23 02:09:52;;;;;;;14.95;8.65;;;;;;;-144.73;100.00;54452.84;5051872;28;20025;-74
2023/09/23 02:12:17;;;;;;;12.88;8.77;;;;;;;-144.73;100.00;54450.81;5040522;28;20032;-76
2023/09/23 02:14:43;;;;;;;27.75;15.32;;;;;;;-144.73;100.00;54489.81;5033645;28;20033;-76
2023/09/23 02:17:08;;;;;;;29.83;17.70;;;;;;;-144.73;100.00;54465.16;5037306;28;20020;-75
2023/09/23 02:19:34;;;;;;;32.05;19.70;;;;;;;-144.73;100.00;54448.75;5034211;28;20037;-75
2023/09/23 02:22:04;;;;;;;29.20;17.85;;;;;;;-144.73;100.00;54463.13;5053184;28;20020;-74
2023/09/23 02:24:31;;;;;;;24.92;17.92;;;;;;;-144.73;100.00;54461.06;5062288;28;20097;-74
2023/09/23 02:26:56;;;;;;;22.98;17.42;;;;;;;-144.73;100.00;54489.81;5035439;28;20028;-75
2023/09/23 02:29:22;;;;;;;25.98;19.52;;;;;;;-144.73;100.00;54493.91;5049800;28;20029;-75
2023/09/23 02:31:49;;;;;;;22.45;15.15;;;;;;;-144.73;100.00;54502.13;5035663;28;20024;-74
2023/09/23 02:34:19;;;;;;;26.08;17.10;;;;;;;-144.73;100.00;54440.53;5059453;28;20131;-75
2023/09/23 02:36:50;;;;;;;36.10;19.33;;;;;;;-144.73;100.00;54539.06;5033668;28;20029;-74
2023/09/23 02:39:17;;;;;;;;;;;;;;;-144.73;100.00;54469.28;5036268;28;20037;-75
2023/09/23 02:41:45;;;;;;;34.97;21.50;;;;;;;-144.73;100.00;54510.31;5041962;28;19932;-74
2023/09/23 02:44:24;;;;;;;30.38;21.83;;;;;;;-144.73;100.00;54438.50;5033299;28;20041;-74
2023/09/23 02:46:53;;;;;;;30.02;20.13;;;;;;;-144.73;100.00;54477.47;5049740;28;20025;-74
2023/09/23 02:49:19;;;;;;;30.10;22.88;;;;;;;-144.73;100.00;54510.31;5036922;28;20458;-75
2023/09/23 02:51:45;;;;;;;35.60;21.77;;;;;;;-144.73;100.00;54473.38;5040186;28;20032;-75
2023/09/23 02:54:13;;;;;;;28.60;21.15;;;;;;;-144.73;100.00;54504.16;5038459;28;20090;-75
2023/09/23 02:56:39;;;;;;;37.05;24.02;;;;;;;-144.73;100.00;54489.81;5036789;28;20395;-75
2023/09/23 02:59:11;;;;;;;34.33;24.00;;;;;;;-144.73;100.00;54469.28;5054907;28;20033;-75
2023/09/23 03:01:39;;;;;;;;;;;;;;;-144.73;100.00;54481.59;5037565;28;20013;-74
2023/09/23 03:04:16;;;;;;;37.70;24.67;;;;;;;-144.73;100.00;54493.91;5032779;28;19913;-74
2023/09/23 03:06:49;;;;;;;36.35;24.45;;;;;;;-144.73;100.00;54473.38;5036844;28;20031;-75
2023/09/23 03:09:19;;;;;;;39.53;26.15;;;;;;;-144.73;100.00;54493.91;5044232;28;20044;-75
2023/09/23 03:11:49;;;;;;;39.92;25.60;;;;;;;-144.73;100.00;54469.28;5048708;28;20024;-75
2023/09/23 03:14:18;;;;;;;35.55;24.20;;;;;;;-144.73;100.00;54483.66;5032566;28;20090;-75
2023/09/23 03:16:49;;;;;;;37.03;25.42;;;;;;;-144.73;100.00;54493.91;5032875;28;20502;-75
2023/09/23 03:19:15;;;;;;;34.88;20.58;;;;;;;-144.73;100.00;54493.91;5060409;28;20029;-75
2023/09/23 03:21:45;;;;;;;39.85;23.88;;;;;;;-144.73;100.00;54473.38;5033111;28;20102;-75
2023/09/23 03:24:11;;;;;;;43.17;25.80;;;;;;;-144.73;100.00;54493.91;5036886;28;20029;-75
2023/09/23 03:26:37;;;;;;;35.17;23.88;;;;;;;-144.73;100.00;54498.00;5043342;28;20040;-76
2023/09/23 03:29:06;;;;;;;30.63;22.83;;;;;;;-144.73;100.00;54477.47;5032244;28;20048;-76
2023/09/23 03:31:31;;;;;;;38.22;24.85;;;;;;;-144.73;100.00;54489.81;5033162;28;20017;-75
2023/09/23 03:33:56;;;;;;;33.75;24.15;;;;;;;-144.73;100.00;54477.47;5031908;28;20031;-75
2023/09/23 03:36:24;;;;;;;39.40;24.70;;;;;;;-144.73;100.00;54493.91;5055296;28;20476;-74
2023/09/23 03:38:51;;;;;;;40.85;26.60;;;;;;;-144.73;100.00;54493.91;5052114;28;20059;-74
2023/09/23 03:41:17;;;;;;;33.67;24.33;;;;;;;-144.73;100.00;54485.69;5056343;28;20017;-74
2023/09/23 03:43:42;;;;;;;45.58;27.27;;;;;;;-144.73;100.00;54477.47;5048965;28;20032;-74
2023/09/23 03:46:14;;;;;;;50.45;28.30;;;;;;;-144.73;100.00;54465.16;5055377;28;20020;-75
2023/09/23 03:48:40;;;;;;;50.30;27.50;;;;;;;-144.73;100.00;54485.69;5054776;28;20017;-75
2023/09/23 03:51:09;;;;;;;66.82;33.88;;;;;;;-144.73;100.00;54516.47;5050309;28;20021;-75
2023/09/23 03:53:35;;;;;;;41.28;26.38;;;;;;;-144.73;100.00;54510.31;5028676;28;20029;-75
2023/09/23 03:56:01;;;;;;;36.33;23.45;;;;;;;-144.73;100.00;54465.16;5055819;28;20052;-75
2023/09/23 03:58:27;;;;;;;43.15;25.95;;;;;;;-144.73;100.00;54510.31;5039563;28;20039;-75
2023/09/23 04:00:57;;;;;;;39.20;24.55;;;;;;;-144.73;100.00;54461.06;5034112;28;20232;-75
2023/09/23 04:03:25;;;;;;;44.67;27.67;;;;;;;-144.73;100.00;54483.66;5036522;28;20073;-75
2023/09/23 04:05:57;;;;;;;42.03;29.17;;;;;;;-144.73;100.00;54452.84;5049956;28;20025;-75
2023/09/23 04:08:23;;;;;;;38.92;24.92;;;;;;;-144.73;100.00;54469.28;5046462;28;20018;-75
2023/09/23 04:10:49;;;;;;;44.22;29.73;;;;;;;-144.73;100.00;54465.16;5031434;28;20034;-76
2023/09/23 04:13:15;;;;;;;49.72;29.90;;;;;;;-144.73;100.00;54510.31;5032510;28;20047;-76
2023/09/23 04:15:41;;;;;;;54.72;32.97;;;;;;;-144.73;100.00;54524.69;5036546;28;20036;-75
2023/09/23 04:18:06;;;;;;;41.00;29.00;;;;;;;-144.73;100.00;54485.69;5051221;28;20365;-75
2023/09/23 04:20:32;;;;;;;41.92;29.30;;;;;;;-144.73;100.00;54543.16;5056245;28;20024;-76
2023/09/23 04:22:58;;;;;;;48.42;31.75;;;;;;;-144.73;100.00;54522.63;5060938;28;20029;-76
2023/09/23 04:25:23;;;;;;;49.05;30.38;;;;;;;-144.73;100.00;54473.38;5030097;28;20033;-76
2023/09/23 04:27:52;;;;;;;60.17;35.40;;;;;;;-144.73;100.00;54487.75;5033156;28;20028;-76
2023/09/23 04:30:17;;;;;;;48.08;32.33;;;;;;;-144.73;100.00;54481.59;5058713;28;20039;-75
2023/09/23 04:32:43;;;;;;;43.60;31.33;;;;;;;-144.73;100.00;54489.81;5032195;28;20103;-76
2023/09/23 04:35:09;;;;;;;49.80;34.00;;;;;;;-144.73;100.00;54489.81;5032857;28;20037;-75
2023/09/23 04:37:37;;;;;;;56.70;37.55;;;;;;;-144.73;100.00;54518.53;5032388;28;20029;-76
2023/09/23 04:40:12;;;;;;;56.15;35.05;;;;;;;-144.73;100.00;54473.38;5047738;28;20136;-76
2023/09/23 04:42:39;;;;;;;56.95;36.45;;;;;;;-144.73;100.00;54526.75;5066533;28;20028;-76
2023/09/23 04:45:06;;;;;;;64.05;40.90;;;;;;;-144.73;100.00;54498.00;5054612;28;20166;-76
2023/09/23 04:47:32;;;;;;;68.80;41.85;;;;;;;-144.73;100.00;54485.69;5051635;28;20059;-76
2023/09/23 04:49:59;;;;;;;60.45;36.30;;;;;;;-144.73;100.00;54522.63;5042644;28;20032;-76
2023/09/23 04:52:27;;;;;;;61.72;37.97;;;;;;;-144.73;100.00;54469.28;5041443;28;20021;-76
2023/09/23 04:54:55;;;;;;;73.57;39.15;;;;;;;-144.73;100.00;54485.69;5042777;28;20029;-75
2023/09/23 04:57:21;;;;;;;64.35;36.90;;;;;;;-144.73;100.00;54510.31;5036813;28;20562;-75
2023/09/23 04:59:47;;;;;;;56.53;36.17;;;;;;;-144.73;100.00;54489.81;5067995;28;20048;-75
2023/09/23 05:02:13;;;;;;;74.78;38.33;;;;;;;-144.73;100.00;54518.53;5036439;28;20498;-75
2023/09/23 05:04:39;;;;;;;52.35;33.13;;;;;;;-144.73;100.00;54436.44;5038446;28;20060;-75
2023/09/23 05:07:04;;;;;;;62.63;37.33;;;;;;;-144.73;100.00;54506.22;5038094;28;20025;-75
2023/09/23 05:09:30;;;;;;;52.72;34.83;;;;;;;-144.73;100.00;54502.13;5061236;28;20043;-75
2023/09/23 05:11:56;;;;;;;60.95;38.97;;;;;;;-144.73;100.00;54498.00;5054439;28;20035;-76
2023/09/23 05:14:24;;;;;;;55.80;32.75;;;;;;;-144.73;100.00;54502.13;5035241;28;20124;-75
2023/09/23 05:16:50;;;;;;;63.45;33.17;;;;;;;-144.73;100.00;54502.13;5035411;28;20021;-75
2023/09/23 05:19:19;;;;;;;53.88;35.80;;;;;;;-144.73;100.00;54530.84;5062714;28;20032;-75
2023/09/23 05:21:45;;;;;;;61.78;39.78;;;;;;;-144.73;100.00;54522.63;5044169;28;20034;-75
2023/09/23 05:24:11;;;;;;;67.55;41.08;;;;;;;-144.73;100.00;54500.06;5035098;28;20039;-75
2023/09/23 05:26:36;;;;;;;74.10;47.13;;;;;;;-144.73;100.00;54489.81;5035596;28;20088;-75
2023/09/23 05:29:02;;;;;;;71.85;42.33;;;;;;;-144.73;100.00;54479.53;5037946;28;20095;-75
2023/09/23 05:31:28;;;;;;;67.38;43.47;;;;;;;-144.73;100.00;54487.75;5036161;28;20021;-75
2023/09/23 05:33:54;;;;;;;71.80;45.95;;;;;;;-144.73;100.00;54485.69;5035291;28;20078;-74
2023/09/23 05:36:20;;;;;;;49.05;37.13;;;;;;;-144.73;100.00;54489.81;5037327;28;20021;-75
2023/09/23 05:38:47;;;;;;;55.75;38.33;;;;;;;-144.73;100.00;54506.22;5038693;28;20024;-75
2023/09/23 05:41:13;;;;;;;49.05;33.72;;;;;;;-144.73;100.00;54479.53;5036261;28;20502;-75
2023/09/23 05:43:39;;;;;;;49.60;31.30;;;;;;;-144.73;100.00;54461.06;5036338;28;20035;-75
2023/09/23 05:46:05;;;;;;;47.80;32.85;;;;;;;-144.73;100.00;54530.84;5036406;28;20104;-75
2023/09/23 05:48:32;;;;;;;38.65;29.30;;;;;;;-144.73;100.00;54489.81;5035116;28;20083;-74
2023/09/23 05:51:07;;;;;;;40.03;30.10;;;;;;;-144.73;100.00;54489.81;5035510;28;20067;-75
2023/09/23 05:53:33;;;;;;;37.20;29.80;;;;;;;-144.73;100.00;54555.47;5052996;28;20024;-75
2023/09/23 05:55:59;;;;;;;42.88;27.65;;;;;;;-144.73;100.00;54502.13;5039755;28;20113;-75
2023/09/23 05:58:25;;;;;;;38.42;27.27;;;;;;;-144.73;100.00;54522.63;5034686;28;20031;-75
2023/09/23 06:00:50;;;;;;;40.97;29.42;;;;;;;-144.73;100.00;54514.44;5035349;28;20033;-75
2023/09/23 06:03:17;;;;;;;49.00;31.42;;;;;;;-144.73;100.00;54498.00;5052524;28;20033;-75
2023/09/23 06:05:45;;;;;;;42.85;31.00;;;;;;;-144.73;100.00;54502.13;5059898;28;20029;-75
2023/09/23 06:08:12;;;;;;;49.55;30.23;;;;;;;-144.73;100.00;54516.47;5064438;28;20024;-75
2023/09/23 06:10:39;;;;;;;44.72;30.85;;;;;;;-144.73;100.00;54495.97;5034177;28;20029;-75
2023/09/23 06:13:05;;;;;;;40.70;25.80;;;;;;;-144.73;100.00;54461.06;5051296;28;20028;-74
2023/09/23 06:15:31;;;;;;;45.95;29.92;;;;;;;-144.73;100.00;54510.31;5051021;28;20124;-74
2023/09/23 06:17:57;;;;;;;40.38;29.58;;;;;;;-144.73;100.00;54493.91;5056003;28;20021;-74
2023/09/23 06:20:22;;;;;;;47.88;31.85;;;;;;;-144.73;100.00;54604.75;5039293;28;20093;-74
2023/09/23 06:22:48;;;;;;;42.33;26.80;;;;;;;-144.73;100.00;54530.84;5043359;28;20054;-74
2023/09/23 06:25:13;;;;;;;41.63;30.63;;;;;;;-144.73;100.00;54489.81;5033803;28;20033;-73
2023/09/23 06:27:39;;;;;;;38.75;27.30;;;;;;;-144.73;100.00;54514.44;5034054;28;20131;-74
2023/09/23 06:30:05;;;;;;;40.55;27.85;;;;;;;-144.73;100.00;54500.06;5064154;28;20068;-74
2023/09/23 06:32:32;;;;;;;38.13;27.65;;;;;;;-144.73;100.00;54489.81;5059862;28;20063;-74
2023/09/23 06:34:57;;;;;;;38.70;27.65;;;;;;;-144.73;100.00;54551.38;5049358;28;20033;-74
2023/09/23 06:37:23;;;;;;;35.55;26.55;;;;;;;-144.73;100.00;54498.00;5055540;28;20101;-73
2023/09/23 06:39:48;;;;;;;41.28;26.80;;;;;;;-144.73;100.00;54506.22;5034193;28;20104;-73
2023/09/23 06:42:13;;;;;;;32.42;25.70;;;;;;;-144.73;100.00;54539.06;5063625;28;20020;-74
2023/09/23 06:44:39;;;;;;;27.52;22.40;;;;;;;-144.73;100.00;54514.44;5037858;28;20057;-73
2023/09/23 06:47:04;;;;;;;27.17;20.98;;;;;;;-144.73;100.00;54491.84;5066155;28;20032;-73
2023/09/23 06:49:30;;;;;;;30.55;24.10;;;;;;;-144.73;100.00;54516.47;5050688;28;20079;-73
2023/09/23 06:51:55;;;;;;;30.45;21.83;;;;;;;-144.73;100.00;54473.38;5063979;28;20037;-74
2023/09/23 06:54:21;;;;;;;30.67;24.00;;;;;;;-144.73;100.00;54498.00;5033140;28;20025;-73
2023/09/23 06:56:46;;;;;;;32.40;24.35;;;;;;;-144.73;100.00;54506.22;5033140;28;20113;-73
2023/09/23 06:59:11;;;;;;;31.33;24.25;;;;;;;-144.73;100.00;54473.38;5066918;28;20476;-73
2023/09/23 07:01:37;;;;;;;32.85;24.20;;;;;;;-144.73;100.00;54506.22;5039199;28;20028;-73
2023/09/23 07:04:03;;;;;;;25.08;18.30;;;;;;;-144.73;100.00;54514.44;5034892;28;20048;-73
2023/09/23 07:06:29;;;;;;;23.27;18.13;;;;;;;-144.73;100.00;54493.91;5039045;28;20052;-73
2023/09/23 07:08:54;;;;;;;21.85;15.65;;;;;;;-144.73;100.00;54506.22;5056221;28;20443;-73
2023/09/23 07:11:20;;;;;;;19.75;14.30;;;;;;;-144.73;100.00;54510.31;5034783;28;20114;-73
2023/09/23 07:13:46;;;;;;;22.67;13.98;;;;;;;-144.73;100.00;54485.69;5057192;28;20021;-73
2023/09/23 07:16:14;;;;;;;19.55;12.40;;;;;;;-144.73;100.00;54483.66;5030736;28;20017;-73
2023/09/23 07:18:39;;;;;;;16.73;11.98;;;;;;;-144.73;100.00;54545.22;5028246;28;20021;-73
2023/09/23 07:21:04;;;;;;;15.25;10.23;;;;;;;-144.73;100.00;54518.53;5035964;28;20021;-72
2023/09/23 07:23:30;;;;;;;19.13;11.50;;;;;;;-144.73;100.00;54493.91;5039197;28;20024;-73
2023/09/23 07:25:55;;;;;;;13.20;10.40;;;;;;;-144.73;100.00;54510.31;5030487;28;20024;-74
2023/09/23 07:28:20;;;;;;;13.77;10.27;;;;;;;-144.73;100.00;54477.47;5017608;28;20026;-73
2023/09/23 07:30:46;;;;;;;14.07;9.63;;;;;;;-144.73;100.00;54518.53;5054611;28;20029;-74
2023/09/23 07:33:11;;;;;;;9.48;8.02;;;;;;;-144.73;100.00;54547.28;5059259;28;20482;-73
2023/09/23 07:35:37;;;;;;;10.88;7.90;;;;;;;-144.73;100.00;54530.84;5032800;28;20085;-73
2023/09/23 07:38:02;;;;;;;11.25;7.43;;;;;;;-144.73;100.00;54508.28;5035087;28;20028;-74
2023/09/23 07:40:29;;;;;;;11.00;7.60;;;;;;;-144.73;100.00;54493.91;5052795;28;20472;-73
2023/09/23 07:42:55;;;;;;;12.65;7.72;;;;;;;-144.73;100.00;54489.81;5038265;28;20025;-74
2023/09/23 07:45:21;;;;;;;10.95;8.15;;;;;;;-144.73;100.00;54485.69;5033149;28;20025;-73
2023/09/23 07:47:46;;;;;;;11.93;7.20;;;;;;;-144.73;100.00;54518.53;5032716;28;20017;-74
2023/09/23 07:50:12;;;;;;;8.98;5.82;;;;;;;-144.73;100.00;54489.81;5058616;28;20029;-74
2023/09/23 07:52:37;;;;;;;7.65;5.65;;;;;;;-144.73;100.00;54483.66;5036683;28;20032;-74
2023/09/23 07:55:04;;;;;;;7.40;5.40;;;;;;;-144.73;100.00;54498.00;5031958;28;20025;-74
2023/09/23 07:57:32;;;;;;;9.20;4.70;;;;;;;-144.73;100.00;54502.13;5050273;28;20020;-74
2023/09/23 07:59:57;;;;;;;5.32;4.35;;;;;;;-144.73;100.00;54526.75;5031999;28;20033;-74
2023/09/23 08:02:23;;;;;;;9.85;5.45;;;;;;;-144.73;100.00;54489.81;5032744;28;20063;-73
2023/09/23 08:04:48;;;;;;;6.75;4.65;;;;;;;-144.73;100.00;54430.28;5032985;28;20036;-74
2023/09/23 08:07:14;;;;;;;6.95;4.15;;;;;;;-144.73;100.00;54498.00;5042293;28;20037;-74
2023/09/23 08:09:40;;;;;;;7.82;4.55;;;;;;;-144.73;100.00;54473.38;5055324;28;20048;-74
2023/09/23 08:12:05;;;;;;;5.50;4.05;;;;;;;-144.73;100.00;54504.16;5032664;28;20040;-74
2023/09/23 08:14:31;;;;;;;6.47;4.43;;;;;;;-144.73;100.00;54506.22;5053989;28;20033;-74
2023/09/23 08:16:56;;;;;;;8.18;3.95;;;;;;;-144.73;100.00;54504.16;5043092;28;20028;-75
2023/09/23 08:19:23;;;;;;;8.35;4.68;;;;;;;-144.73;100.00;54539.06;5024654;28;20037;-76
2023/09/23 08:21:49;;;;;;;6.40;3.97;;;;;;;-144.73;100.00;54498.00;5025412;28;20043;-75
2023/09/23 08:24:25;;;;;;;18.33;4.40;;;;;;;-144.73;100.00;54498.00;5025473;28;20036;-75
2023/09/23 08:26:51;;;;;;;8.25;4.20;;;;;;;-144.73;100.00;54510.31;5021636;28;20022;-77
2023/09/23 08:29:16;;;;;;;6.40;4.15;;;;;;;-144.73;100.00;54498.00;5021532;28;20679;-77
2023/09/23 08:31:42;;;;;;;8.27;4.38;;;;;;;-144.73;100.00;54539.06;5040599;28;20064;-76
2023/09/23 08:34:09;;;;;;;5.82;3.90;;;;;;;-144.73;100.00;54477.47;5022128;28;20053;-76
2023/09/23 08:36:38;;;;;;;7.45;3.53;;;;;;;-144.73;100.00;54506.22;5028445;28;20026;-76
2023/09/23 08:39:09;;;;;;;6.80;3.60;;;;;;;-144.73;100.00;54456.97;5025464;28;20036;-76
2023/09/23 08:41:35;;;;;;;8.07;3.80;;;;;;;-144.73;100.00;54477.47;5022221;28;20053;-76
2023/09/23 08:44:04;;;;;;;8.80;3.90;;;;;;;-144.73;100.00;54506.22;5020786;28;20064;-76
2023/09/23 08:46:31;;;;;;;8.38;3.67;;;;;;;-144.73;100.00;54502.13;5024960;28;20039;-76
2023/09/23 08:48:58;;;;;;;4.38;3.10;;;;;;;-144.73;100.00;54477.47;5022875;28;20100;-76
2023/09/23 08:51:25;;;;;;;11.38;3.50;;;;;;;-144.73;100.00;54522.63;5025920;28;20161;-75
2023/09/23 08:53:52;;;;;;;9.82;3.55;;;;;;;-144.73;100.00;54514.44;5025749;28;20025;-75
2023/09/23 08:56:19;;;;;;;4.05;2.70;;;;;;;-144.73;100.00;54475.44;5021571;28;20018;-75
2023/09/23 08:58:48;;;;;;;6.32;3.75;;;;;;;-144.73;100.00;54518.53;5021561;28;20059;-75
2023/09/23 09:01:14;;;;;;;9.10;4.00;;;;;;;-144.73;100.00;54514.44;5024020;28;20014;-75
2023/09/23 09:03:39;;;;;;;5.93;4.35;;;;;;;-144.73;100.00;54473.38;5042561;28;20021;-76
2023/09/23 09:06:15;;;;;;;9.45;4.80;;;;;;;-144.73;100.00;54506.22;5054202;28;20017;-76
2023/09/23 09:08:40;;;;;;;6.40;4.90;;;;;;;-144.73;100.00;54489.81;5041751;28;20025;-75
2023/09/23 09:11:06;;;;;;;10.95;5.38;;;;;;;-144.73;100.00;54526.75;5028292;28;20027;-75
2023/09/23 09:13:31;;;;;;;7.75;5.90;;;;;;;-144.73;100.00;54495.97;5033160;28;20036;-75
2023/09/23 09:15:56;;;;;;;9.65;5.38;;;;;;;-144.73;100.00;54493.91;5051598;28;20040;-76
2023/09/23 09:18:22;;;;;;;9.93;5.55;;;;;;;-144.73;100.00;54522.63;5031375;28;20025;-76
2023/09/23 09:20:47;;;;;;;8.80;6.30;;;;;;;-144.73;100.00;54473.38;5028322;28;20033;-75
2023/09/23 09:23:15;;;;;;;9.93;6.68;;;;;;;-144.73;100.00;54493.91;5043977;28;20464;-75
2023/09/23 09:25:47;;;;;;;10.07;5.90;;;;;;;-144.73;100.00;54502.13;5054349;28;20048;-75
2023/09/23 09:28:12;;;;;;;9.77;5.45;;;;;;;-144.73;100.00;54489.81;5051961;28;20017;-75
2023/09/23 09:30:38;;;;;;;9.93;5.15;;;;;;;-144.73;100.00;54461.06;5027295;28;20104;-75
2023/09/23 09:33:08;;;;;;;10.32;5.45;;;;;;;-144.73;100.00;54473.38;5049938;28;20013;-75
2023/09/23 09:35:33;;;;;;;6.30;5.15;;;;;;;-144.73;100.00;54506.22;5054748;28;20043;-75
2023/09/23 09:38:05;;;;;;;9.60;5.00;;;;;;;-144.73;100.00;54485.69;5039503;28;20013;-75
2023/09/23 09:40:31;;;;;;;6.35;4.85;;;;;;;-144.73;100.00;54481.59;5030731;28;20032;-75
2023/09/23 09:42:59;;;;;;;8.95;4.88;;;;;;;-144.73;100.00;54493.91;5039875;28;20028;-75
2023/09/23 09:45:26;;;;;;;9.10;4.28;;;;;;;-144.73;100.00;54473.38;5029751;28;20028;-75
2023/09/23 09:47:55;;;;;;;6.00;3.97;;;;;;;-144.73;100.00;54467.22;5034075;28;20029;-70
2023/09/23 09:50:23;;;;;;;9.35;4.65;;;;;;;-144.73;100.00;54479.53;5043343;28;20118;-70
2023/09/23 09:52:49;;;;;;;6.40;3.75;;;;;;;-144.73;100.00;54498.00;5051034;28;20090;-75
2023/09/23 09:55:18;;;;;;;9.25;3.45;;;;;;;-144.73;100.00;54489.81;5054727;28;20368;-75
2023/09/23 09:57:45;;;;;;;11.10;3.60;;;;;;;-144.73;100.00;54493.91;5052938;28;20024;-74
2023/09/23 10:00:26;;;;;;;5.28;3.30;;;;;;;-144.73;100.00;54461.06;5043848;28;20109;-75
2023/09/23 10:03:00;;;;;;;5.57;3.30;;;;;;;-144.73;100.00;54489.81;5059134;28;20055;-75
2023/09/23 10:05:33;;;;;;;8.38;3.53;;;;;;;-144.73;100.00;54514.44;5030846;28;20094;-74
2023/09/23 10:07:59;;;;;;;12.60;3.60;;;;;;;-144.73;100.00;54514.44;5037879;28;20099;-75
2023/09/23 10:10:34;;;;;;;5.32;3.25;;;;;;;-144.73;100.00;54477.47;5032041;28;20029;-73
2023/09/23 10:13:23;;;;;;;7.60;3.17;;;;;;;-144.73;100.00;54493.91;5033092;28;20025;-75
2023/09/23 10:16:13;;;;;;;6.38;3.50;;;;;;;-144.73;100.00;54452.84;5059742;28;20055;-77
2023/09/23 10:18:40;;;;;;;5.80;3.28;;;;;;;-144.73;100.00;54475.44;5024983;28;20033;-73
2023/09/23 10:21:07;;;;;;;6.45;3.60;;;;;;;-144.73;100.00;54522.63;5030104;28;20033;-76
2023/09/23 10:23:35;;;;;;;6.07;3.22;;;;;;;-144.73;100.00;54506.22;5036394;28;20051;-75
2023/09/23 10:26:19;;;;;;;5.03;3.25;;;;;;;-144.73;100.00;54444.66;5050904;28;20052;-75
2023/09/23 10:29:05;;;;;;;5.78;2.67;;;;;;;-144.73;100.00;54465.16;5028889;28;20071;-75
2023/09/23 10:31:32;;;;;;;7.00;3.35;;;;;;;-144.73;100.00;54481.59;5055888;28;20383;-75
2023/09/23 10:34:04;;;;;;;4.65;4.00;;;;;;;-144.73;100.00;54442.59;5045240;28;20042;-75
2023/09/23 10:36:29;;;;;;;11.48;3.92;;;;;;;-144.73;100.00;54448.75;5031230;28;20040;-75
2023/09/23 10:38:56;;;;;;;9.60;4.95;;;;;;;-144.73;100.00;54477.47;5044342;28;20028;-76
2023/09/23 10:41:30;;;;;;;8.80;4.43;;;;;;;-144.73;100.00;54483.66;5049923;28;20021;-74
2023/09/23 10:43:56;;;;;;;6.22;4.20;;;;;;;-144.73;100.00;54411.81;5052886;28;20041;-76
2023/09/23 10:46:21;;;;;;;6.07;3.22;;;;;;;-144.73;100.00;54477.47;5029693;28;20046;-75
2023/09/23 10:48:47;;;;;;;5.53;3.38;;;;;;;-144.73;100.00;54493.91;5030385;28;20049;-74
2023/09/23 10:51:13;;;;;;;6.55;3.33;;;;;;;-144.73;100.00;54504.16;5030696;28;20067;-75
2023/09/23 10:53:38;;;;;;;4.97;3.20;;;;;;;-144.73;100.00;54444.66;5032364;28;20029;-75
2023/09/23 10:56:04;;;;;;;13.45;3.63;;;;;;;-144.73;100.00;54506.22;5042853;28;20074;-73
2023/09/23 10:58:33;;;;;;;5.13;3.65;;;;;;;-144.73;100.00;54498.00;5050544;28;20078;-75
2023/09/23 11:01:00;;;;;;;6.57;3.53;;;;;;;-144.73;100.00;54473.38;5060492;28;20029;-75